Time;durP1;ratioP1;P1;durP2;ratioP2;P2;SDS_P1;SDS_P2;PMS_P1;PMS_P2;Temp;Humidity;BMP_temperature;BMP_pressure;BME280_temperature;BME280_humidity;BME280_pressure;Samples;Min_cycle;Max_cycle;Signal;HPM_P1;HPM_P2
2023/07/19 00:01:28;;;;;;;7.80;7.00;;;22.10;82.40;;;;;;5068482;28;20604;-81
2023/07/19 00:03:55;;;;;;;7.33;6.63;;;22.10;82.60;;;;;;5054846;28;20467;-76
2023/07/19 00:06:23;;;;;;;7.03;6.33;;;22.10;82.70;;;;;;5054469;28;20542;-76
2023/07/19 00:08:50;;;;;;;6.67;5.97;;;22.10;82.80;;;;;;5054151;28;20542;-79
2023/07/19 00:11:17;;;;;;;7.00;6.30;;;22.10;83.00;;;;;;5053566;28;21168;-76
2023/07/19 00:13:44;;;;;;;7.60;6.80;;;22.10;83.20;;;;;;5054780;28;20550;-76
2023/07/19 00:16:11;;;;;;;8.63;6.90;;;22.10;83.30;;;;;;5054484;28;20490;-76
2023/07/19 00:18:40;;;;;;;10.97;7.93;;;22.00;83.40;;;;;;5056276;28;20502;-75
2023/07/19 00:21:07;;;;;;;12.03;9.33;;;22.00;83.80;;;;;;5054919;28;20463;-80
2023/07/19 00:23:34;;;;;;;11.93;8.13;;;21.90;83.90;;;;;;5063307;28;20458;-81
2023/07/19 00:26:01;;;;;;;9.10;7.93;;;21.90;84.10;;;;;;5074878;28;20470;-79
2023/07/19 00:28:28;;;;;;;10.67;8.63;;;21.90;84.20;;;;;;5075908;28;20465;-81
2023/07/19 00:31:00;;;;;;;9.63;8.47;;;21.90;84.30;;;;;;5075922;28;20484;-80
2023/07/19 00:33:28;;;;;;;9.00;7.87;;;21.90;84.50;;;;;;5074900;28;20450;-80
2023/07/19 00:35:56;;;;;;;10.10;9.10;;;21.90;84.50;;;;;;5075449;28;20583;-81
2023/07/19 00:38:23;;;;;;;9.10;7.33;;;21.90;84.50;;;;;;5063634;28;20524;-76
2023/07/19 00:40:50;;;;;;;10.87;7.97;;;21.80;84.50;;;;;;5075271;28;20557;-80
2023/07/19 00:43:19;;;;;;;10.23;6.67;;;21.80;84.60;;;;;;5065719;28;20490;-80
2023/07/19 00:45:48;;;;;;;6.93;6.23;;;21.80;84.50;;;;;;5074884;28;20470;-81
2023/07/19 00:48:16;;;;;;;6.40;5.80;;;21.80;84.50;;;;;;5075500;28;20553;-80
2023/07/19 00:50:44;;;;;;;7.20;6.50;;;21.80;84.50;;;;;;5075143;28;20490;-76
2023/07/19 00:53:13;;;;;;;5.63;5.13;;;21.80;84.40;;;;;;5074951;28;20466;-77
2023/07/19 00:55:41;;;;;;;6.90;5.83;;;21.80;84.40;;;;;;5075458;28;20466;-76
2023/07/19 00:58:08;;;;;;;5.70;4.80;;;21.80;84.30;;;;;;5075354;28;20466;-80
2023/07/19 01:00:36;;;;;;;6.00;5.50;;;21.80;84.20;;;;;;5071646;28;20458;-76
2023/07/19 01:03:03;;;;;;;4.50;4.10;;;21.70;83.80;;;;;;5074944;28;20474;-81
2023/07/19 01:05:31;;;;;;;4.90;4.50;;;21.80;83.60;;;;;;5073442;28;21042;-76
2023/07/19 01:07:59;;;;;;;5.43;4.90;;;21.70;83.40;;;;;;5075120;28;20991;-76
2023/07/19 01:10:27;;;;;;;4.93;4.17;;;21.70;83.40;;;;;;5074441;28;20550;-80
2023/07/19 01:13:04;;;;;;;6.93;5.47;;;21.70;83.50;;;;;;5074794;28;20494;-76
2023/07/19 01:15:31;;;;;;;8.20;5.33;;;21.70;83.50;;;;;;5073726;28;20470;-76
2023/07/19 01:17:58;;;;;;;4.93;4.53;;;21.70;83.50;;;;;;5074354;28;20467;-76
2023/07/19 01:20:25;;;;;;;6.80;5.40;;;21.70;83.70;;;;;;5073841;28;20474;-80
2023/07/19 01:22:54;;;;;;;4.87;4.47;;;21.60;83.60;;;;;;5074708;28;20559;-79
2023/07/19 01:25:21;;;;;;;4.20;3.80;;;21.60;83.60;;;;;;5074137;28;20975;-80
2023/07/19 01:27:49;;;;;;;5.07;4.60;;;21.60;83.50;;;;;;5074600;28;20981;-76
2023/07/19 01:30:16;;;;;;;8.57;5.50;;;21.60;83.80;;;;;;5074514;28;20470;-80
2023/07/19 01:32:44;;;;;;;6.30;5.17;;;21.60;84.10;;;;;;5074443;28;20470;-76
2023/07/19 01:35:11;;;;;;;6.10;5.50;;;21.50;84.50;;;;;;5074167;28;20556;-76
2023/07/19 01:37:40;;;;;;;9.33;5.23;;;21.50;84.70;;;;;;5073963;28;20458;-80
2023/07/19 01:40:11;;;;;;;4.80;4.30;;;21.50;85.20;;;;;;5074265;28;20474;-80
2023/07/19 01:42:41;;;;;;;5.43;4.93;;;21.50;85.90;;;;;;5073528;28;20546;-75
2023/07/19 01:45:09;;;;;;;7.23;5.20;;;21.40;86.20;;;;;;5074591;28;20466;-80
2023/07/19 01:47:36;;;;;;;6.27;5.03;;;21.40;87.50;;;;;;5073549;28;20549;-76
2023/07/19 01:50:04;;;;;;;4.60;4.20;;;21.30;87.90;;;;;;5073567;28;20470;-80
2023/07/19 01:52:30;;;;;;;6.83;5.57;;;21.30;88.20;;;;;;5073524;28;20802;-80
2023/07/19 01:54:57;;;;;;;4.53;4.13;;;21.30;88.60;;;;;;5073956;28;20474;-80
2023/07/19 01:57:26;;;;;;;4.70;4.20;;;21.30;88.70;;;;;;5073139;28;20475;-76
2023/07/19 01:59:53;;;;;;;5.27;3.73;;;21.30;88.70;;;;;;5073820;28;20470;-80
2023/07/19 02:02:20;;;;;;;5.63;5.03;;;21.20;88.80;;;;;;5073033;28;21051;-79
2023/07/19 02:04:47;;;;;;;4.90;4.30;;;21.20;88.90;;;;;;5073895;28;20545;-75
2023/07/19 02:07:14;;;;;;;4.53;3.90;;;21.20;89.00;;;;;;5073935;28;20466;-75
2023/07/19 02:09:42;;;;;;;6.97;4.17;;;21.20;88.90;;;;;;5073101;28;20533;-75
2023/07/19 02:12:10;;;;;;;4.83;4.33;;;21.20;88.90;;;;;;5073989;28;20470;-75
2023/07/19 02:14:41;;;;;;;4.87;4.40;;;21.20;88.70;;;;;;5073516;28;20848;-75
2023/07/19 02:17:09;;;;;;;5.40;4.87;;;21.20;88.70;;;;;;5073896;28;20470;-79
2023/07/19 02:19:37;;;;;;;5.43;4.67;;;21.20;88.90;;;;;;5072912;28;20478;-74
2023/07/19 02:22:07;;;;;;;6.10;5.00;;;21.20;89.00;;;;;;5072923;28;20462;-75
2023/07/19 02:24:35;;;;;;;5.80;5.20;;;21.10;89.10;;;;;;5073322;28;20470;-75
2023/07/19 02:27:03;;;;;;;4.80;4.33;;;21.20;89.20;;;;;;5073875;28;20467;-75
2023/07/19 02:29:30;;;;;;;3.70;3.40;;;21.10;89.40;;;;;;5073029;28;20493;-79
2023/07/19 02:32:05;;;;;;;6.17;4.73;;;21.10;89.40;;;;;;5073202;28;20536;-80
2023/07/19 02:34:31;;;;;;;4.30;3.90;;;21.10;89.60;;;;;;5073010;28;21023;-75
2023/07/19 02:36:58;;;;;;;3.53;3.23;;;21.00;89.40;;;;;;5073435;28;20459;-79
2023/07/19 02:39:30;;;;;;;3.97;3.30;;;21.00;89.00;;;;;;5072681;28;21009;-79
2023/07/19 02:41:57;;;;;;;6.40;3.70;;;21.00;88.70;;;;;;5073726;28;20546;-75
2023/07/19 02:44:24;;;;;;;8.43;4.33;;;21.00;88.20;;;;;;5073685;28;20523;-80
2023/07/19 02:46:51;;;;;;;3.53;3.23;;;21.00;88.00;;;;;;5073320;28;20537;-76
2023/07/19 02:49:19;;;;;;;5.00;3.10;;;21.00;87.80;;;;;;5073499;28;20589;-79
2023/07/19 02:51:46;;;;;;;6.57;3.93;;;21.00;87.50;;;;;;5073142;28;20869;-79
2023/07/19 02:54:13;;;;;;;6.63;3.40;;;21.00;87.30;;;;;;5073828;28;20498;-80
2023/07/19 02:56:40;;;;;;;3.23;2.97;;;21.00;87.30;;;;;;5072643;28;20539;-80
2023/07/19 02:59:07;;;;;;;3.50;3.20;;;21.10;87.20;;;;;;5059519;28;20562;-77
2023/07/19 03:01:36;;;;;;;3.27;2.97;;;21.10;87.10;;;;;;5065437;28;20477;-77
2023/07/19 03:04:06;;;;;;;4.93;3.33;;;21.10;87.10;;;;;;5076472;28;20462;-81
2023/07/19 03:06:34;;;;;;;3.67;3.37;;;21.10;87.10;;;;;;5078080;28;20473;-81
2023/07/19 03:09:02;;;;;;;4.97;4.07;;;21.10;87.20;;;;;;5077258;28;20482;-80
2023/07/19 03:11:29;;;;;;;4.47;3.23;;;21.10;87.30;;;;;;5078303;28;20473;-81
2023/07/19 03:13:56;;;;;;;3.27;3.00;;;21.10;87.30;;;;;;5078616;28;20500;-81
2023/07/19 03:16:23;;;;;;;2.97;2.67;;;21.10;87.50;;;;;;5077526;28;20544;-80
2023/07/19 03:18:50;;;;;;;2.90;2.70;;;21.10;87.40;;;;;;5076875;28;20804;-76
2023/07/19 03:21:20;;;;;;;4.27;3.17;;;21.10;87.30;;;;;;5077053;28;20528;-81
2023/07/19 03:23:48;;;;;;;2.77;2.50;;;21.10;87.20;;;;;;5076414;28;20497;-80
2023/07/19 03:26:15;;;;;;;3.80;2.60;;;21.10;86.90;;;;;;5077001;28;20462;-81
2023/07/19 03:28:42;;;;;;;2.67;2.43;;;21.20;86.80;;;;;;5076403;28;21055;-77
2023/07/19 03:31:12;;;;;;;3.77;2.30;;;21.10;86.40;;;;;;5076676;28;20458;-80
2023/07/19 03:33:40;;;;;;;3.90;2.60;;;21.10;86.10;;;;;;5076367;28;20466;-81
2023/07/19 03:36:07;;;;;;;2.33;2.10;;;21.10;85.90;;;;;;5076448;28;20469;-76
2023/07/19 03:38:34;;;;;;;2.67;2.47;;;21.10;85.80;;;;;;5076511;28;20480;-81
2023/07/19 03:41:09;;;;;;;3.13;1.97;;;21.10;85.40;;;;;;5076031;28;20516;-80
2023/07/19 03:43:39;;;;;;;3.50;2.83;;;21.10;85.30;;;;;;5076648;28;20458;-81
2023/07/19 03:46:07;;;;;;;3.03;2.30;;;21.20;85.30;;;;;;5075697;28;20454;-76
2023/07/19 03:48:35;;;;;;;2.33;2.10;;;21.20;85.40;;;;;;5076628;28;20485;-77
2023/07/19 03:51:03;;;;;;;2.70;2.50;;;21.10;85.40;;;;;;5075965;28;20584;-76
2023/07/19 03:53:30;;;;;;;2.57;2.37;;;21.20;85.50;;;;;;5076304;28;20474;-76
2023/07/19 03:55:58;;;;;;;5.30;3.07;;;21.20;85.40;;;;;;5075925;28;20864;-75
2023/07/19 03:58:28;;;;;;;3.30;2.63;;;21.20;85.50;;;;;;5076628;28;20549;-76
2023/07/19 04:00:57;;;;;;;3.70;2.70;;;21.20;85.70;;;;;;5076038;28;20472;-80
2023/07/19 04:03:24;;;;;;;3.10;2.50;;;21.20;85.80;;;;;;5076115;28;20481;-80
2023/07/19 04:05:51;;;;;;;4.37;2.90;;;21.30;85.90;;;;;;5075757;28;20474;-80
2023/07/19 04:08:20;;;;;;;3.90;3.33;;;21.30;86.10;;;;;;5076479;28;20866;-80
2023/07/19 04:10:47;;;;;;;2.93;2.53;;;21.30;86.10;;;;;;5075934;28;20553;-76
2023/07/19 04:13:14;;;;;;;2.93;2.70;;;21.30;86.00;;;;;;5075399;28;20549;-81
2023/07/19 04:15:43;;;;;;;2.97;2.30;;;21.40;85.90;;;;;;5076526;28;20549;-80
2023/07/19 04:18:10;;;;;;;2.90;2.60;;;21.40;86.00;;;;;;5075439;28;20912;-76
2023/07/19 04:20:38;;;;;;;3.93;2.50;;;21.50;86.30;;;;;;5075862;28;20524;-76
2023/07/19 04:23:05;;;;;;;3.23;2.60;;;21.50;86.30;;;;;;5075640;28;20467;-80
2023/07/19 04:25:32;;;;;;;3.10;2.63;;;21.50;86.30;;;;;;5076337;28;20534;-80
2023/07/19 04:27:59;;;;;;;3.20;2.07;;;21.50;86.10;;;;;;5075686;28;20516;-76
2023/07/19 04:30:26;;;;;;;2.03;1.93;;;21.60;86.00;;;;;;5075749;28;20474;-76
2023/07/19 04:32:56;;;;;;;2.63;2.43;;;21.60;85.40;;;;;;5074857;28;20971;-76
2023/07/19 04:35:23;;;;;;;3.57;1.90;;;21.60;84.90;;;;;;5075915;28;20474;-80
2023/07/19 04:37:50;;;;;;;3.40;2.17;;;21.60;84.70;;;;;;5075477;28;20474;-75
2023/07/19 04:40:17;;;;;;;5.30;1.80;;;21.70;84.60;;;;;;5075899;28;20547;-80
2023/07/19 04:42:45;;;;;;;2.93;2.27;;;21.70;84.20;;;;;;5075839;28;20474;-76
2023/07/19 04:45:15;;;;;;;3.57;2.20;;;21.70;83.60;;;;;;5075045;28;20830;-80
2023/07/19 04:47:42;;;;;;;2.73;2.33;;;21.70;83.10;;;;;;5075753;28;20813;-73
2023/07/19 04:50:11;;;;;;;2.50;1.90;;;21.70;82.30;;;;;;5062515;28;20846;-76
2023/07/19 04:52:38;;;;;;;2.97;2.50;;;21.70;81.90;;;;;;5061583;28;20558;-80
2023/07/19 04:55:06;;;;;;;1.90;1.80;;;21.70;81.60;;;;;;5074984;28;20524;-80
2023/07/19 04:57:33;;;;;;;2.63;2.00;;;21.80;81.60;;;;;;5075713;28;21027;-81
2023/07/19 05:00:00;;;;;;;2.93;2.10;;;21.80;81.20;;;;;;5074961;28;21065;-80
2023/07/19 05:02:30;;;;;;;2.60;2.20;;;21.80;81.10;;;;;;5075321;28;20546;-76
2023/07/19 05:04:57;;;;;;;2.83;2.10;;;21.80;81.00;;;;;;5074695;28;20967;-80
2023/07/19 05:07:25;;;;;;;2.80;2.40;;;21.80;81.00;;;;;;5075570;28;20463;-79
2023/07/19 05:09:52;;;;;;;2.10;1.67;;;21.90;81.20;;;;;;5074297;28;20553;-79
2023/07/19 05:12:19;;;;;;;2.10;1.90;;;21.90;80.90;;;;;;5075245;28;20541;-80
2023/07/19 05:14:46;;;;;;;2.00;1.80;;;21.90;80.70;;;;;;5075020;28;20473;-80
2023/07/19 05:17:13;;;;;;;3.37;1.90;;;22.00;80.60;;;;;;5074127;28;20861;-80
2023/07/19 05:19:40;;;;;;;2.40;1.90;;;21.90;80.20;;;;;;5074932;28;20492;-81
2023/07/19 05:22:07;;;;;;;2.60;1.90;;;22.00;79.90;;;;;;5074254;28;20466;-77
2023/07/19 05:24:35;;;;;;;3.10;2.50;;;22.00;79.70;;;;;;5073401;28;20487;-80
2023/07/19 05:27:02;;;;;;;2.70;1.90;;;22.00;79.40;;;;;;5073633;28;20973;-80
2023/07/19 05:29:29;;;;;;;5.90;1.87;;;22.00;79.40;;;;;;5074796;28;20458;-76
2023/07/19 05:31:56;;;;;;;2.67;1.70;;;22.00;78.70;;;;;;5073438;28;20565;-76
2023/07/19 05:34:30;;;;;;;2.27;1.90;;;22.10;78.70;;;;;;5074507;28;20787;-76
2023/07/19 05:36:58;;;;;;;5.03;2.00;;;22.10;77.90;;;;;;5073281;28;20471;-80
2023/07/19 05:39:25;;;;;;;2.47;2.27;;;22.20;77.30;;;;;;5074253;28;20512;-80
2023/07/19 05:41:54;;;;;;;2.00;1.60;;;22.20;77.20;;;;;;5074575;28;20875;-75
2023/07/19 05:44:23;;;;;;;1.93;1.83;;;22.20;77.20;;;;;;5073598;28;20486;-76
2023/07/19 05:46:50;;;;;;;1.90;1.80;;;22.30;76.70;;;;;;5074292;28;20494;-75
2023/07/19 05:49:18;;;;;;;1.90;1.80;;;22.30;76.10;;;;;;5073227;28;20508;-75
2023/07/19 05:51:45;;;;;;;2.10;1.80;;;22.30;75.40;;;;;;5074287;28;20894;-75
2023/07/19 05:54:12;;;;;;;1.80;1.60;;;22.40;75.60;;;;;;5073229;28;20498;-75
2023/07/19 05:56:39;;;;;;;2.67;2.07;;;22.40;75.80;;;;;;5074323;28;20498;-80
2023/07/19 05:59:14;;;;;;;2.20;2.00;;;22.40;76.00;;;;;;5072890;28;20497;-75
2023/07/19 06:01:42;;;;;;;3.43;2.47;;;22.50;76.00;;;;;;5074052;28;20470;-76
2023/07/19 06:04:09;;;;;;;2.20;2.00;;;22.50;75.90;;;;;;5073154;28;20502;-76
2023/07/19 06:06:37;;;;;;;3.50;1.93;;;22.60;75.70;;;;;;5073666;28;20470;-76
2023/07/19 06:09:05;;;;;;;3.40;1.93;;;22.70;75.70;;;;;;5073030;28;20466;-76
2023/07/19 06:11:33;;;;;;;2.80;2.30;;;22.70;75.70;;;;;;5073636;28;20470;-78
2023/07/19 06:14:00;;;;;;;3.27;2.30;;;22.80;75.30;;;;;;5073205;28;21039;-80
2023/07/19 06:16:29;;;;;;;2.07;1.73;;;22.90;75.40;;;;;;5073365;28;20486;-80
2023/07/19 06:18:56;;;;;;;2.20;1.97;;;22.90;75.60;;;;;;5073785;28;20798;-75
2023/07/19 06:21:22;;;;;;;3.43;2.73;;;23.00;75.90;;;;;;5072935;28;20455;-76
2023/07/19 06:23:49;;;;;;;2.80;1.70;;;23.10;76.00;;;;;;5073554;28;20540;-80
2023/07/19 06:26:16;;;;;;;3.97;2.20;;;23.10;75.70;;;;;;5072776;28;20549;-80
2023/07/19 06:28:43;;;;;;;2.90;2.40;;;23.20;75.10;;;;;;5073744;28;20466;-80
2023/07/19 06:31:10;;;;;;;3.23;2.10;;;23.30;74.80;;;;;;5073370;28;20546;-80
2023/07/19 06:33:38;;;;;;;3.10;2.23;;;23.30;74.50;;;;;;5073382;28;20470;-77
2023/07/19 06:36:06;;;;;;;3.17;2.17;;;23.30;74.40;;;;;;5072648;28;21005;-80
2023/07/19 06:38:37;;;;;;;2.37;1.97;;;23.40;74.50;;;;;;5059632;28;20471;-80
2023/07/19 06:41:04;;;;;;;4.07;2.70;;;23.40;74.50;;;;;;5060968;28;20531;-75
2023/07/19 06:43:31;;;;;;;5.80;2.00;;;23.50;74.30;;;;;;5072636;28;20628;-74
2023/07/19 06:45:59;;;;;;;3.50;2.40;;;23.50;74.50;;;;;;5073237;28;20964;-75
2023/07/19 06:48:27;;;;;;;2.40;1.87;;;23.60;74.90;;;;;;5072652;28;20470;-74
2023/07/19 06:50:56;;;;;;;6.63;2.20;;;23.60;74.50;;;;;;5073329;28;20458;-79
2023/07/19 06:53:26;;;;;;;3.13;2.80;;;23.60;74.70;;;;;;5072650;28;20980;-75
2023/07/19 06:55:55;;;;;;;5.90;2.03;;;23.70;75.00;;;;;;5072709;28;20497;-74
2023/07/19 06:58:25;;;;;;;4.33;2.43;;;23.70;74.70;;;;;;5072663;28;20500;-80
2023/07/19 07:00:58;;;;;;;2.53;2.17;;;23.80;74.60;;;;;;5073448;28;20473;-80
2023/07/19 07:03:26;;;;;;;4.87;2.23;;;23.80;74.20;;;;;;5073394;28;20807;-80
2023/07/19 07:05:53;;;;;;;4.00;2.27;;;23.90;74.30;;;;;;5074289;28;20458;-80
2023/07/19 07:08:21;;;;;;;2.67;2.40;;;24.00;74.50;;;;;;5072613;28;20467;-80
2023/07/19 07:10:48;;;;;;;4.03;2.10;;;24.20;74.80;;;;;;5057706;28;20558;-80
2023/07/19 07:13:16;;;;;;;3.03;2.50;;;24.30;74.50;;;;;;5061123;28;20825;-80
2023/07/19 07:15:43;;;;;;;5.63;2.43;;;24.40;74.60;;;;;;5073474;28;20469;-76
2023/07/19 07:18:09;;;;;;;3.70;2.40;;;24.40;74.40;;;;;;5073355;28;20799;-75
2023/07/19 07:20:36;;;;;;;7.10;2.40;;;24.50;74.10;;;;;;5072669;28;20535;-81
2023/07/19 07:23:03;;;;;;;3.57;2.40;;;24.50;73.90;;;;;;5073085;28;20494;-76
2023/07/19 07:25:34;;;;;;;3.30;2.60;;;24.50;74.30;;;;;;5073047;28;20478;-81
2023/07/19 07:28:01;;;;;;;4.13;2.40;;;24.60;75.00;;;;;;5073476;28;20517;-81
2023/07/19 07:30:28;;;;;;;2.63;2.03;;;24.60;75.00;;;;;;5071374;28;20558;-76
2023/07/19 07:32:55;;;;;;;4.37;2.40;;;24.70;74.10;;;;;;5073443;28;20481;-77
2023/07/19 07:35:22;;;;;;;2.83;2.50;;;24.80;73.40;;;;;;5072488;28;20470;-80
2023/07/19 07:37:49;;;;;;;6.73;3.00;;;25.00;73.60;;;;;;5072985;28;20458;-76
2023/07/19 07:40:16;;;;;;;3.53;2.10;;;25.10;74.00;;;;;;5071965;28;20474;-80
2023/07/19 07:42:44;;;;;;;3.93;2.70;;;25.20;73.00;;;;;;5072704;28;20512;-77
2023/07/19 07:45:12;;;;;;;4.57;3.13;;;25.40;72.00;;;;;;5072854;28;20466;-77
2023/07/19 07:47:39;;;;;;;2.97;2.67;;;25.70;71.60;;;;;;5074346;28;20450;-82
2023/07/19 07:50:08;;;;;;;3.77;3.00;;;25.90;71.40;;;;;;5077141;28;20868;-77
2023/07/19 07:52:36;;;;;;;2.47;2.10;;;26.00;70.90;;;;;;5076056;28;23153;-77
2023/07/19 07:55:04;;;;;;;5.63;2.63;;;26.20;70.80;;;;;;5051214;28;20471;-81
2023/07/19 07:57:33;;;;;;;3.23;2.70;;;26.40;69.30;;;;;;5074006;28;20797;-77
2023/07/19 08:00:06;;;;;;;3.90;3.23;;;26.50;68.70;;;;;;5076652;28;20477;-81
2023/07/19 08:02:33;;;;;;;4.00;3.50;;;26.50;67.90;;;;;;5075806;28;20496;-81
2023/07/19 08:05:00;;;;;;;3.00;2.40;;;26.50;68.20;;;;;;5076691;28;20475;-75
2023/07/19 08:07:27;;;;;;;3.30;2.57;;;26.50;67.80;;;;;;5075681;28;20470;-77
2023/07/19 08:09:54;;;;;;;2.70;2.50;;;26.50;68.20;;;;;;5076522;28;20471;-76
2023/07/19 08:12:21;;;;;;;2.60;1.93;;;26.50;68.20;;;;;;5075293;28;20974;-81
2023/07/19 08:14:49;;;;;;;2.80;2.60;;;26.40;68.00;;;;;;5075708;28;20964;-75
2023/07/19 08:17:17;;;;;;;4.80;3.17;;;26.40;68.20;;;;;;5075816;28;20999;-76
2023/07/19 08:19:44;;;;;;;4.33;2.70;;;26.40;68.10;;;;;;5075297;28;20532;-81
2023/07/19 08:22:26;;;;;;;3.53;2.27;;;26.40;68.10;;;;;;5075551;28;20466;-81
2023/07/19 08:24:54;;;;;;;2.73;2.53;;;26.30;68.40;;;;;;5075592;28;21287;-77
2023/07/19 08:27:20;;;;;;;3.47;2.83;;;26.30;68.30;;;;;;5075176;28;20471;-77
2023/07/19 08:29:47;;;;;;;4.03;2.70;;;26.30;68.80;;;;;;5075383;28;21046;-74
2023/07/19 08:32:14;;;;;;;3.57;2.83;;;26.30;68.30;;;;;;5075943;28;20866;-75
2023/07/19 08:34:43;;;;;;;4.03;2.60;;;26.20;68.40;;;;;;5075225;28;20518;-76
2023/07/19 08:37:10;;;;;;;4.83;2.63;;;26.20;68.70;;;;;;5075407;28;20546;-74
2023/07/19 08:39:37;;;;;;;3.80;2.60;;;26.10;68.60;;;;;;5074754;28;20462;-75
2023/07/19 08:42:05;;;;;;;4.70;3.70;;;26.10;68.10;;;;;;5075267;28;20542;-80
2023/07/19 08:44:33;;;;;;;5.80;4.00;;;26.20;67.90;;;;;;5075163;28;20494;-79
2023/07/19 08:47:01;;;;;;;3.43;2.87;;;26.30;67.50;;;;;;5075597;28;20483;-76
2023/07/19 08:49:28;;;;;;;4.07;3.67;;;26.30;67.00;;;;;;5075354;28;20485;-75
2023/07/19 08:51:57;;;;;;;4.20;3.60;;;26.30;67.50;;;;;;5074826;28;20524;-75
2023/07/19 08:54:24;;;;;;;3.33;3.03;;;26.30;67.30;;;;;;5074194;28;20472;-76
2023/07/19 08:56:51;;;;;;;4.00;3.40;;;26.40;67.40;;;;;;5075124;28;20505;-75
2023/07/19 08:59:18;;;;;;;3.47;3.17;;;26.50;66.80;;;;;;5075202;28;20470;-74
2023/07/19 09:01:45;;;;;;;5.00;3.03;;;26.60;66.70;;;;;;5074410;28;20546;-80
2023/07/19 09:04:12;;;;;;;3.53;3.23;;;26.60;66.50;;;;;;5074811;28;20471;-79
2023/07/19 09:06:40;;;;;;;5.47;3.30;;;26.70;66.30;;;;;;5074769;28;20978;-80
2023/07/19 09:09:12;;;;;;;3.90;2.87;;;26.80;66.30;;;;;;5074388;28;20476;-75
2023/07/19 09:11:43;;;;;;;4.60;2.43;;;26.90;66.50;;;;;;5074247;28;20460;-79
2023/07/19 09:14:10;;;;;;;3.90;2.97;;;26.90;66.40;;;;;;5075129;28;20475;-75
2023/07/19 09:16:37;;;;;;;3.63;3.07;;;26.90;66.70;;;;;;5073935;28;20471;-75
2023/07/19 09:19:09;;;;;;;6.87;4.20;;;26.90;66.60;;;;;;5075090;28;20478;-75
2023/07/19 09:21:40;;;;;;;4.00;2.57;;;26.90;66.30;;;;;;5073939;28;20481;-76
2023/07/19 09:24:08;;;;;;;3.33;3.03;;;27.00;65.50;;;;;;5074957;28;20463;-79
2023/07/19 09:26:49;;;;;;;2.57;2.37;;;27.00;65.10;;;;;;5075410;28;20501;-80
2023/07/19 09:29:16;;;;;;;4.37;3.13;;;27.10;65.30;;;;;;5074843;28;20511;-76
2023/07/19 09:31:57;;;;;;;3.37;2.90;;;27.20;65.10;;;;;;5074214;28;20466;-79
2023/07/19 09:34:28;;;;;;;4.00;3.20;;;27.20;65.00;;;;;;5074077;28;20783;-75
2023/07/19 09:36:55;;;;;;;2.60;2.33;;;27.30;64.70;;;;;;5074423;28;20535;-80
2023/07/19 09:39:23;;;;;;;2.40;2.20;;;27.40;64.10;;;;;;5073574;28;20507;-75
2023/07/19 09:41:51;;;;;;;3.37;2.70;;;27.40;64.50;;;;;;5074706;28;20479;-80
2023/07/19 09:44:18;;;;;;;3.00;2.30;;;27.40;64.50;;;;;;5074209;28;20951;-80
2023/07/19 09:46:48;;;;;;;3.67;2.40;;;27.40;64.00;;;;;;5073785;28;20492;-80
2023/07/19 09:49:16;;;;;;;2.77;2.33;;;27.40;64.40;;;;;;5074607;28;20478;-75
2023/07/19 09:51:44;;;;;;;3.03;2.73;;;27.50;64.40;;;;;;5073265;28;20462;-75
2023/07/19 09:54:13;;;;;;;5.73;4.47;;;27.50;64.30;;;;;;5073233;28;20477;-75
2023/07/19 09:56:41;;;;;;;5.50;3.80;;;27.60;64.50;;;;;;5073279;28;20464;-76
2023/07/19 09:59:14;;;;;;;3.40;3.10;;;27.60;62.70;;;;;;5073971;28;20473;-81
2023/07/19 10:01:43;;;;;;;3.60;3.30;;;27.60;62.30;;;;;;5074017;28;20963;-77
2023/07/19 10:04:23;;;;;;;4.40;3.37;;;27.60;62.30;;;;;;5073717;28;20473;-76
2023/07/19 10:07:04;;;;;;;3.17;2.90;;;27.60;61.20;;;;;;5074342;28;20486;-76
2023/07/19 10:09:32;;;;;;;2.57;2.17;;;27.70;62.20;;;;;;5073209;28;20462;-76
2023/07/19 10:12:02;;;;;;;3.17;2.27;;;27.70;61.50;;;;;;5073766;28;20556;-76
2023/07/19 10:14:33;;;;;;;2.40;2.20;;;27.70;61.40;;;;;;5072608;28;20584;-81
2023/07/19 10:17:01;;;;;;;3.10;2.90;;;27.70;61.70;;;;;;5073859;28;20513;-76
2023/07/19 10:19:28;;;;;;;2.63;2.43;;;27.70;61.00;;;;;;5073464;28;20466;-80
2023/07/19 10:22:03;;;;;;;3.77;2.83;;;27.60;59.90;;;;;;5073597;28;20469;-81
2023/07/19 10:24:31;;;;;;;3.97;2.80;;;27.50;60.10;;;;;;5073060;28;20560;-76
2023/07/19 10:27:01;;;;;;;3.20;2.80;;;27.60;60.20;;;;;;5073804;28;20559;-76
2023/07/19 10:29:37;;;;;;;4.43;2.90;;;27.60;60.60;;;;;;5072960;28;20476;-80
2023/07/19 10:32:05;;;;;;;3.23;2.83;;;27.50;61.50;;;;;;5074064;28;20486;-81
2023/07/19 10:34:33;;;;;;;2.73;2.53;;;27.50;61.90;;;;;;5072912;28;20484;-76
2023/07/19 10:37:02;;;;;;;3.93;3.53;;;27.50;61.40;;;;;;5073782;28;20473;-82
2023/07/19 10:39:29;;;;;;;3.83;2.80;;;27.50;62.30;;;;;;5072968;28;20530;-81
2023/07/19 10:41:56;;;;;;;2.50;2.30;;;27.50;61.60;;;;;;5073181;28;20476;-77
2023/07/19 10:44:24;;;;;;;4.17;2.73;;;27.60;62.10;;;;;;5073512;28;20473;-77
2023/07/19 10:46:53;;;;;;;3.10;2.23;;;27.60;62.30;;;;;;5072967;28;20462;-75
2023/07/19 10:49:22;;;;;;;4.77;2.33;;;27.70;62.30;;;;;;5073608;28;20474;-80
2023/07/19 10:51:53;;;;;;;2.50;2.10;;;27.70;62.50;;;;;;5073080;28;20497;-81
2023/07/19 10:54:20;;;;;;;3.17;2.87;;;27.80;61.90;;;;;;5073157;28;20472;-82
2023/07/19 10:56:52;;;;;;;2.73;2.53;;;27.80;62.00;;;;;;5060793;28;20960;-81
2023/07/19 10:59:19;;;;;;;2.27;2.07;;;27.90;62.20;;;;;;5059186;28;20820;-80
2023/07/19 11:01:49;;;;;;;3.20;2.70;;;27.90;62.30;;;;;;5072810;28;20493;-81
2023/07/19 11:04:18;;;;;;;4.70;2.70;;;28.00;61.70;;;;;;5073200;28;20477;-80
2023/07/19 11:06:58;;;;;;;2.53;2.20;;;28.00;60.90;;;;;;5073349;28;20482;-81
2023/07/19 11:09:25;;;;;;;3.73;2.73;;;28.10;60.30;;;;;;5073275;28;20473;-81
2023/07/19 11:11:53;;;;;;;3.93;2.97;;;28.20;60.20;;;;;;5072688;28;20963;-81
2023/07/19 11:14:33;;;;;;;4.10;2.80;;;28.20;60.00;;;;;;5072993;28;20478;-80
2023/07/19 11:17:00;;;;;;;3.47;2.80;;;28.30;59.60;;;;;;5072836;28;20531;-81
2023/07/19 11:19:36;;;;;;;2.63;2.43;;;28.30;59.50;;;;;;5073493;28;20533;-82
2023/07/19 11:22:04;;;;;;;3.57;2.70;;;28.30;59.60;;;;;;5074941;28;20489;-81
2023/07/19 11:24:35;;;;;;;3.63;2.40;;;28.30;60.00;;;;;;5076978;28;20478;-76
2023/07/19 11:27:04;;;;;;;3.20;2.73;;;28.30;60.20;;;;;;5076025;28;20783;-78
2023/07/19 11:29:32;;;;;;;3.07;2.47;;;28.20;60.10;;;;;;5076736;28;20805;-76
2023/07/19 11:32:16;;;;;;;3.90;3.03;;;28.10;60.40;;;;;;5076994;28;20445;-80
2023/07/19 11:34:53;;;;;;;3.60;2.70;;;28.00;60.60;;;;;;5075855;28;20971;-75
2023/07/19 11:37:21;;;;;;;2.67;2.47;;;27.90;60.80;;;;;;5076856;28;21022;-74
2023/07/19 11:39:49;;;;;;;7.97;2.87;;;27.90;61.20;;;;;;5075960;28;20611;-75
2023/07/19 11:42:31;;;;;;;3.83;2.53;;;27.80;61.00;;;;;;5076158;28;20497;-76
2023/07/19 11:44:58;;;;;;;2.17;1.97;;;27.80;61.30;;;;;;5075080;28;20572;-75
2023/07/19 11:47:28;;;;;;;3.17;2.50;;;27.70;61.40;;;;;;5076720;28;20465;-77
2023/07/19 11:49:57;;;;;;;3.03;2.63;;;27.60;61.60;;;;;;5075900;28;20962;-81
2023/07/19 11:52:24;;;;;;;4.00;2.63;;;27.60;61.70;;;;;;5076578;28;20484;-74
2023/07/19 11:54:52;;;;;;;6.20;2.37;;;27.50;61.60;;;;;;5075993;28;20465;-75
2023/07/19 11:57:19;;;;;;;3.77;3.17;;;27.50;61.50;;;;;;5076376;28;20852;-80
2023/07/19 11:59:48;;;;;;;2.47;2.27;;;27.50;61.80;;;;;;5075999;28;20551;-75
2023/07/19 12:02:15;;;;;;;3.17;2.50;;;27.40;61.90;;;;;;5076352;28;20476;-80
2023/07/19 12:04:44;;;;;;;2.97;2.37;;;27.40;62.50;;;;;;5076148;28;20499;-80
2023/07/19 12:07:16;;;;;;;2.83;2.50;;;27.40;62.30;;;;;;5075767;28;20456;-81
2023/07/19 12:09:43;;;;;;;2.90;2.50;;;27.40;62.60;;;;;;5076506;28;20477;-77
2023/07/19 12:12:10;;;;;;;2.50;2.30;;;27.40;62.50;;;;;;5053664;28;20604;-76
2023/07/19 12:14:37;;;;;;;2.17;1.97;;;27.40;62.50;;;;;;5070858;28;20815;-81
2023/07/19 12:17:10;;;;;;;2.30;2.07;;;27.40;62.70;;;;;;5063832;28;20473;-82
2023/07/19 12:19:37;;;;;;;5.17;2.43;;;27.40;63.10;;;;;;5061541;28;20476;-81
2023/07/19 12:22:05;;;;;;;3.53;2.90;;;27.40;63.40;;;;;;5075297;28;20539;-76
2023/07/19 12:24:33;;;;;;;3.13;2.70;;;27.40;63.50;;;;;;5075811;28;20465;-75
2023/07/19 12:27:00;;;;;;;2.67;2.47;;;27.40;63.60;;;;;;5075634;28;20934;-80
2023/07/19 12:29:27;;;;;;;2.40;2.20;;;27.50;63.50;;;;;;5075965;28;20489;-76
2023/07/19 12:31:54;;;;;;;2.43;2.23;;;27.40;63.00;;;;;;5075802;28;21048;-75
2023/07/19 12:34:21;;;;;;;2.77;2.30;;;27.40;63.20;;;;;;5074307;28;20537;-80
2023/07/19 12:36:50;;;;;;;4.63;2.63;;;27.40;63.60;;;;;;5076356;28;20489;-80
2023/07/19 12:39:20;;;;;;;3.53;2.70;;;27.40;63.90;;;;;;5075361;28;20667;-79
2023/07/19 12:41:48;;;;;;;3.50;2.80;;;27.40;63.70;;;;;;5075457;28;20490;-76
2023/07/19 12:44:16;;;;;;;3.00;2.53;;;27.40;62.80;;;;;;5074888;28;20862;-76
2023/07/19 12:46:43;;;;;;;3.43;2.17;;;27.40;62.80;;;;;;5075361;28;20550;-80
2023/07/19 12:49:10;;;;;;;2.90;2.50;;;27.40;62.90;;;;;;5074399;28;20469;-76
2023/07/19 12:51:38;;;;;;;2.67;2.47;;;27.40;63.00;;;;;;5075424;28;20497;-81